This is the latest recevied weather packets stored in our database for station/object KI4SSU. If no packets are shown the sender has not sent any weather packets the latest 1 day(s).
| Time | Temp. | Humidity | Pressure | Rain* | Wind** | Luminosity | Snow |
|---|---|---|---|---|---|---|---|
| 1778025379 | 27.22° C | - | - | 0 mm | 1.79 m/s, 320° | - | - |
| 1778025079 | 27.22° C | - | - | 0 mm | 3.13 m/s, 321° | - | - |
| 1778024780 | 27.78° C | - | - | 0 mm | 3.13 m/s, 18° | - | - |
| 1778024480 | 27.78° C | - | - | 0 mm | 3.13 m/s, 353° | - | - |
| 1778024179 | 28.89° C | - | - | 0 mm | 2.68 m/s, 10° | - | - |
| 1778023879 | 28.89° C | - | - | 0 mm | 2.68 m/s, 356° | - | - |
| 1778023579 | 29.44° C | - | - | 0 mm | 2.24 m/s, 346° | - | - |
| 1778023280 | 30° C | - | - | 0 mm | 2.24 m/s, 349° | - | - |
| 1778022980 | 30° C | - | - | 0 mm | 3.58 m/s, 28° | - | - |
| 1778022680 | 30.56° C | - | - | 0 mm | 3.13 m/s, 306° | - | - |
| 1778022080 | 31.67° C | - | - | 0 mm | 2.24 m/s, 325° | - | - |
| 1778021780 | 32.22° C | - | - | 0 mm | 1.34 m/s, 322° | - | - |
| 1778021180 | 33.33° C | - | - | 0 mm | 1.34 m/s, 282° | - | - |
| 1778020880 | 33.33° C | - | - | 0 mm | 2.68 m/s, 39° | - | - |
| 1778020280 | 33.33° C | - | - | 0 mm | 2.24 m/s, 327° | - | - |
| 1778019980 | 33.33° C | - | - | 0 mm | 2.68 m/s, 359° | - | - |
| 1778019680 | 34.44° C | - | - | 0 mm | 1.34 m/s, 336° | - | - |
| 1778019380 | 35° C | - | - | 0 mm | 2.24 m/s, 17° | - | - |
| 1778019080 | 35.56° C | - | - | 0 mm | 1.79 m/s, 279° | - | - |
| 1778018780 | 35.56° C | - | - | 0 mm | 1.34 m/s, 358° | - | - |
| 1778018180 | 35.56° C | - | - | 0 mm | 0.89 m/s, 272° | - | - |
| 1778017880 | 36.11° C | - | - | 0 mm | 0.45 m/s, 296° | - | - |
| 1778017280 | 35.56° C | - | - | 0 mm | 1.34 m/s, 244° | - | - |
| 1778016980 | 35.56° C | - | - | 0 mm | 0 m/s | - | - |
| 1778016681 | 35.56° C | - | - | 0 mm | 1.34 m/s, 201° | - | - |
* Rain since midnight (hover to see other rain measurements)
** Current wind speed in m/s (hover to see current wind gust speed)